sensor_id;sensor_type;location;lat;lon;timestamp;P1;durP1;ratioP1;P2;durP2;ratioP2
12271;SDS011;6198;51.446;6.698;2023-08-07T00:00:42;10.93;;;3.67;;
12271;SDS011;6198;51.446;6.698;2023-08-07T00:03:08;13.40;;;3.93;;
12271;SDS011;6198;51.446;6.698;2023-08-07T00:05:36;14.37;;;4.23;;
12271;SDS011;6198;51.446;6.698;2023-08-07T00:08:02;13.50;;;4.00;;
12271;SDS011;6198;51.446;6.698;2023-08-07T00:10:28;16.80;;;4.23;;
12271;SDS011;6198;51.446;6.698;2023-08-07T00:12:55;13.33;;;3.70;;
12271;SDS011;6198;51.446;6.698;2023-08-07T00:15:21;11.60;;;3.77;;
12271;SDS011;6198;51.446;6.698;2023-08-07T00:17:47;9.70;;;3.67;;
12271;SDS011;6198;51.446;6.698;2023-08-07T00:20:13;13.93;;;3.97;;
12271;SDS011;6198;51.446;6.698;2023-08-07T00:22:39;12.50;;;3.93;;
12271;SDS011;6198;51.446;6.698;2023-08-07T00:25:05;14.77;;;3.87;;
12271;SDS011;6198;51.446;6.698;2023-08-07T00:27:31;11.73;;;3.90;;
12271;SDS011;6198;51.446;6.698;2023-08-07T00:29:56;9.87;;;3.70;;
12271;SDS011;6198;51.446;6.698;2023-08-07T00:32:23;10.33;;;3.57;;
12271;SDS011;6198;51.446;6.698;2023-08-07T00:34:49;11.90;;;4.10;;
12271;SDS011;6198;51.446;6.698;2023-08-07T00:37:15;17.03;;;3.80;;
12271;SDS011;6198;51.446;6.698;2023-08-07T00:39:41;8.87;;;3.03;;
12271;SDS011;6198;51.446;6.698;2023-08-07T00:42:07;12.10;;;3.27;;
12271;SDS011;6198;51.446;6.698;2023-08-07T00:44:33;17.60;;;3.30;;
12271;SDS011;6198;51.446;6.698;2023-08-07T00:46:59;11.47;;;3.37;;
12271;SDS011;6198;51.446;6.698;2023-08-07T00:49:25;14.63;;;3.93;;
12271;SDS011;6198;51.446;6.698;2023-08-07T00:51:51;12.63;;;3.07;;
12271;SDS011;6198;51.446;6.698;2023-08-07T00:54:18;9.23;;;3.20;;
12271;SDS011;6198;51.446;6.698;2023-08-07T00:56:44;6.37;;;2.70;;
12271;SDS011;6198;51.446;6.698;2023-08-07T00:59:10;10.67;;;3.13;;
12271;SDS011;6198;51.446;6.698;2023-08-07T01:01:36;11.93;;;3.53;;
12271;SDS011;6198;51.446;6.698;2023-08-07T01:04:03;14.63;;;3.80;;
12271;SDS011;6198;51.446;6.698;2023-08-07T01:06:29;11.93;;;4.00;;
12271;SDS011;6198;51.446;6.698;2023-08-07T01:08:55;9.67;;;3.77;;
12271;SDS011;6198;51.446;6.698;2023-08-07T01:11:29;17.33;;;3.90;;
12271;SDS011;6198;51.446;6.698;2023-08-07T01:14:00;15.90;;;3.80;;
12271;SDS011;6198;51.446;6.698;2023-08-07T01:16:29;13.80;;;3.70;;
12271;SDS011;6198;51.446;6.698;2023-08-07T01:18:57;14.13;;;4.20;;
12271;SDS011;6198;51.446;6.698;2023-08-07T01:21:24;20.43;;;4.60;;
12271;SDS011;6198;51.446;6.698;2023-08-07T01:23:50;11.30;;;3.50;;
12271;SDS011;6198;51.446;6.698;2023-08-07T01:26:18;13.50;;;4.00;;
12271;SDS011;6198;51.446;6.698;2023-08-07T01:29:28;9.40;;;3.47;;
12271;SDS011;6198;51.446;6.698;2023-08-07T01:31:33;17.10;;;3.93;;
12271;SDS011;6198;51.446;6.698;2023-08-07T01:34:04;8.77;;;3.70;;
12271;SDS011;6198;51.446;6.698;2023-08-07T01:36:31;13.63;;;3.40;;
12271;SDS011;6198;51.446;6.698;2023-08-07T01:38:58;9.30;;;2.83;;
12271;SDS011;6198;51.446;6.698;2023-08-07T01:41:25;19.10;;;3.30;;
12271;SDS011;6198;51.446;6.698;2023-08-07T01:43:51;7.83;;;3.00;;
12271;SDS011;6198;51.446;6.698;2023-08-07T01:46:18;9.90;;;3.53;;
12271;SDS011;6198;51.446;6.698;2023-08-07T01:48:44;12.17;;;4.30;;
12271;SDS011;6198;51.446;6.698;2023-08-07T01:51:13;8.90;;;3.70;;
12271;SDS011;6198;51.446;6.698;2023-08-07T01:53:39;15.50;;;3.40;;
12271;SDS011;6198;51.446;6.698;2023-08-07T01:56:05;12.90;;;3.87;;
12271;SDS011;6198;51.446;6.698;2023-08-07T01:58:31;9.43;;;3.43;;
12271;SDS011;6198;51.446;6.698;2023-08-07T02:00:57;17.43;;;4.27;;
12271;SDS011;6198;51.446;6.698;2023-08-07T02:03:23;12.07;;;4.13;;
12271;SDS011;6198;51.446;6.698;2023-08-07T02:05:49;9.30;;;3.03;;
12271;SDS011;6198;51.446;6.698;2023-08-07T02:08:15;15.97;;;4.07;;
12271;SDS011;6198;51.446;6.698;2023-08-07T02:10:41;11.57;;;4.10;;
12271;SDS011;6198;51.446;6.698;2023-08-07T02:13:09;11.20;;;3.83;;
12271;SDS011;6198;51.446;6.698;2023-08-07T02:15:35;8.03;;;3.70;;
12271;SDS011;6198;51.446;6.698;2023-08-07T02:18:01;11.57;;;4.57;;
12271;SDS011;6198;51.446;6.698;2023-08-07T02:20:27;9.93;;;3.83;;
12271;SDS011;6198;51.446;6.698;2023-08-07T02:22:53;13.80;;;4.10;;
12271;SDS011;6198;51.446;6.698;2023-08-07T02:25:19;13.63;;;4.50;;
12271;SDS011;6198;51.446;6.698;2023-08-07T02:27:45;13.63;;;4.40;;
12271;SDS011;6198;51.446;6.698;2023-08-07T02:30:11;16.43;;;4.60;;
12271;SDS011;6198;51.446;6.698;2023-08-07T02:32:37;14.37;;;4.60;;
12271;SDS011;6198;51.446;6.698;2023-08-07T02:35:03;14.13;;;4.60;;
12271;SDS011;6198;51.446;6.698;2023-08-07T02:37:29;15.00;;;4.57;;
12271;SDS011;6198;51.446;6.698;2023-08-07T02:39:55;10.30;;;3.83;;
12271;SDS011;6198;51.446;6.698;2023-08-07T02:42:21;12.00;;;4.60;;
12271;SDS011;6198;51.446;6.698;2023-08-07T02:44:47;13.77;;;4.30;;
12271;SDS011;6198;51.446;6.698;2023-08-07T02:47:12;13.10;;;4.70;;
12271;SDS011;6198;51.446;6.698;2023-08-07T02:49:38;13.93;;;4.40;;
12271;SDS011;6198;51.446;6.698;2023-08-07T02:52:04;13.67;;;4.93;;
12271;SDS011;6198;51.446;6.698;2023-08-07T02:54:30;17.00;;;5.33;;
12271;SDS011;6198;51.446;6.698;2023-08-07T02:56:57;13.83;;;4.80;;
12271;SDS011;6198;51.446;6.698;2023-08-07T02:59:23;16.37;;;4.70;;
12271;SDS011;6198;51.446;6.698;2023-08-07T03:01:49;19.50;;;5.03;;
12271;SDS011;6198;51.446;6.698;2023-08-07T03:04:15;17.17;;;5.27;;
12271;SDS011;6198;51.446;6.698;2023-08-07T03:06:42;21.53;;;5.03;;
12271;SDS011;6198;51.446;6.698;2023-08-07T03:09:08;21.70;;;5.30;;
12271;SDS011;6198;51.446;6.698;2023-08-07T03:11:34;18.33;;;4.33;;
12271;SDS011;6198;51.446;6.698;2023-08-07T03:14:00;13.07;;;4.63;;
12271;SDS011;6198;51.446;6.698;2023-08-07T03:16:26;19.90;;;4.40;;
12271;SDS011;6198;51.446;6.698;2023-08-07T03:18:51;16.47;;;4.70;;
12271;SDS011;6198;51.446;6.698;2023-08-07T03:21:17;17.73;;;4.57;;
12271;SDS011;6198;51.446;6.698;2023-08-07T03:23:43;26.93;;;4.80;;
12271;SDS011;6198;51.446;6.698;2023-08-07T03:26:11;14.67;;;4.73;;
12271;SDS011;6198;51.446;6.698;2023-08-07T03:28:37;17.97;;;5.03;;
12271;SDS011;6198;51.446;6.698;2023-08-07T03:31:03;21.30;;;5.87;;
12271;SDS011;6198;51.446;6.698;2023-08-07T03:33:29;24.33;;;4.60;;
12271;SDS011;6198;51.446;6.698;2023-08-07T03:35:56;22.33;;;5.40;;
12271;SDS011;6198;51.446;6.698;2023-08-07T03:38:22;20.37;;;5.60;;
12271;SDS011;6198;51.446;6.698;2023-08-07T03:40:48;18.90;;;4.77;;
12271;SDS011;6198;51.446;6.698;2023-08-07T03:43:14;21.30;;;5.93;;
12271;SDS011;6198;51.446;6.698;2023-08-07T03:45:40;16.63;;;5.67;;
12271;SDS011;6198;51.446;6.698;2023-08-07T03:48:06;14.93;;;5.30;;
12271;SDS011;6198;51.446;6.698;2023-08-07T03:50:32;19.57;;;5.23;;
12271;SDS011;6198;51.446;6.698;2023-08-07T03:53:01;16.47;;;5.17;;
12271;SDS011;6198;51.446;6.698;2023-08-07T03:55:27;13.57;;;4.63;;
12271;SDS011;6198;51.446;6.698;2023-08-07T03:57:53;14.93;;;5.17;;
12271;SDS011;6198;51.446;6.698;2023-08-07T04:00:19;13.77;;;4.83;;
12271;SDS011;6198;51.446;6.698;2023-08-07T04:02:45;18.57;;;5.47;;
12271;SDS011;6198;51.446;6.698;2023-08-07T04:05:11;18.73;;;5.17;;
12271;SDS011;6198;51.446;6.698;2023-08-07T04:07:37;14.13;;;4.87;;
12271;SDS011;6198;51.446;6.698;2023-08-07T04:10:03;11.10;;;4.17;;
12271;SDS011;6198;51.446;6.698;2023-08-07T04:12:29;18.13;;;5.40;;
12271;SDS011;6198;51.446;6.698;2023-08-07T04:14:56;12.87;;;4.37;;
12271;SDS011;6198;51.446;6.698;2023-08-07T04:17:22;15.87;;;5.47;;
12271;SDS011;6198;51.446;6.698;2023-08-07T04:19:48;19.30;;;5.23;;
12271;SDS011;6198;51.446;6.698;2023-08-07T04:22:13;12.47;;;4.70;;
12271;SDS011;6198;51.446;6.698;2023-08-07T04:24:39;15.17;;;4.57;;
12271;SDS011;6198;51.446;6.698;2023-08-07T04:27:05;18.80;;;4.80;;
12271;SDS011;6198;51.446;6.698;2023-08-07T04:29:33;17.77;;;4.93;;
12271;SDS011;6198;51.446;6.698;2023-08-07T04:31:59;22.60;;;5.00;;
12271;SDS011;6198;51.446;6.698;2023-08-07T04:34:25;18.27;;;5.67;;
12271;SDS011;6198;51.446;6.698;2023-08-07T04:36:51;13.37;;;5.00;;
12271;SDS011;6198;51.446;6.698;2023-08-07T04:39:18;13.07;;;4.90;;
12271;SDS011;6198;51.446;6.698;2023-08-07T04:41:44;12.13;;;4.87;;
12271;SDS011;6198;51.446;6.698;2023-08-07T04:44:10;17.20;;;5.17;;
12271;SDS011;6198;51.446;6.698;2023-08-07T04:46:36;14.93;;;4.93;;
12271;SDS011;6198;51.446;6.698;2023-08-07T04:49:02;19.00;;;5.23;;
12271;SDS011;6198;51.446;6.698;2023-08-07T04:51:28;12.60;;;4.50;;
12271;SDS011;6198;51.446;6.698;2023-08-07T04:53:56;15.27;;;5.33;;
12271;SDS011;6198;51.446;6.698;2023-08-07T04:56:22;16.10;;;5.27;;
12271;SDS011;6198;51.446;6.698;2023-08-07T04:58:48;13.53;;;5.10;;
12271;SDS011;6198;51.446;6.698;2023-08-07T05:01:14;14.20;;;4.97;;
12271;SDS011;6198;51.446;6.698;2023-08-07T05:03:40;15.03;;;5.43;;
12271;SDS011;6198;51.446;6.698;2023-08-07T05:06:07;11.97;;;5.33;;
12271;SDS011;6198;51.446;6.698;2023-08-07T05:08:33;15.43;;;5.60;;
12271;SDS011;6198;51.446;6.698;2023-08-07T05:10:59;23.77;;;6.13;;
12271;SDS011;6198;51.446;6.698;2023-08-07T05:13:25;16.97;;;5.60;;
12271;SDS011;6198;51.446;6.698;2023-08-07T05:15:51;18.00;;;5.83;;
12271;SDS011;6198;51.446;6.698;2023-08-07T05:18:17;19.97;;;6.10;;
12271;SDS011;6198;51.446;6.698;2023-08-07T05:20:44;17.37;;;5.63;;
12271;SDS011;6198;51.446;6.698;2023-08-07T05:23:10;22.43;;;5.67;;
12271;SDS011;6198;51.446;6.698;2023-08-07T05:25:36;16.93;;;5.50;;
12271;SDS011;6198;51.446;6.698;2023-08-07T05:28:02;15.27;;;5.47;;
12271;SDS011;6198;51.446;6.698;2023-08-07T05:30:28;17.50;;;5.67;;
12271;SDS011;6198;51.446;6.698;2023-08-07T05:32:54;18.43;;;5.43;;
12271;SDS011;6198;51.446;6.698;2023-08-07T05:35:20;19.37;;;6.87;;
12271;SDS011;6198;51.446;6.698;2023-08-07T05:37:46;15.80;;;6.23;;
12271;SDS011;6198;51.446;6.698;2023-08-07T05:40:12;11.40;;;5.23;;
12271;SDS011;6198;51.446;6.698;2023-08-07T05:42:38;17.30;;;5.70;;
12271;SDS011;6198;51.446;6.698;2023-08-07T05:45:05;19.13;;;5.30;;
12271;SDS011;6198;51.446;6.698;2023-08-07T05:47:32;15.13;;;6.13;;
12271;SDS011;6198;51.446;6.698;2023-08-07T05:49:58;18.37;;;6.73;;
12271;SDS011;6198;51.446;6.698;2023-08-07T05:52:23;17.70;;;6.33;;
12271;SDS011;6198;51.446;6.698;2023-08-07T05:54:49;15.17;;;6.00;;
12271;SDS011;6198;51.446;6.698;2023-08-07T05:57:17;9.00;;;4.50;;
12271;SDS011;6198;51.446;6.698;2023-08-07T05:59:43;15.53;;;5.50;;
12271;SDS011;6198;51.446;6.698;2023-08-07T06:02:09;8.87;;;4.17;;
12271;SDS011;6198;51.446;6.698;2023-08-07T06:04:38;12.77;;;5.67;;
12271;SDS011;6198;51.446;6.698;2023-08-07T06:07:05;19.70;;;5.97;;
12271;SDS011;6198;51.446;6.698;2023-08-07T06:09:32;11.73;;;5.40;;
12271;SDS011;6198;51.446;6.698;2023-08-07T06:11:58;13.73;;;5.33;;
12271;SDS011;6198;51.446;6.698;2023-08-07T06:14:24;13.73;;;5.03;;
12271;SDS011;6198;51.446;6.698;2023-08-07T06:16:50;15.50;;;5.70;;
12271;SDS011;6198;51.446;6.698;2023-08-07T06:19:16;13.37;;;6.17;;
12271;SDS011;6198;51.446;6.698;2023-08-07T06:21:42;14.37;;;5.40;;
12271;SDS011;6198;51.446;6.698;2023-08-07T06:24:08;13.73;;;5.60;;
12271;SDS011;6198;51.446;6.698;2023-08-07T06:26:34;12.97;;;4.83;;
12271;SDS011;6198;51.446;6.698;2023-08-07T06:29:00;8.30;;;4.93;;
12271;SDS011;6198;51.446;6.698;2023-08-07T06:31:26;13.67;;;5.10;;
12271;SDS011;6198;51.446;6.698;2023-08-07T06:33:52;15.30;;;5.00;;
12271;SDS011;6198;51.446;6.698;2023-08-07T06:36:18;13.60;;;5.03;;
12271;SDS011;6198;51.446;6.698;2023-08-07T06:38:44;12.90;;;5.43;;
12271;SDS011;6198;51.446;6.698;2023-08-07T06:41:10;13.23;;;5.30;;
12271;SDS011;6198;51.446;6.698;2023-08-07T06:43:36;18.83;;;5.43;;
12271;SDS011;6198;51.446;6.698;2023-08-07T06:46:02;14.87;;;6.17;;
12271;SDS011;6198;51.446;6.698;2023-08-07T06:48:28;17.50;;;6.33;;
12271;SDS011;6198;51.446;6.698;2023-08-07T06:50:54;15.13;;;6.10;;
12271;SDS011;6198;51.446;6.698;2023-08-07T06:53:20;11.67;;;5.00;;
12271;SDS011;6198;51.446;6.698;2023-08-07T06:55:46;15.00;;;5.90;;
12271;SDS011;6198;51.446;6.698;2023-08-07T06:58:12;14.83;;;5.77;;
12271;SDS011;6198;51.446;6.698;2023-08-07T07:00:38;13.73;;;5.53;;
12271;SDS011;6198;51.446;6.698;2023-08-07T07:03:04;12.50;;;5.23;;
12271;SDS011;6198;51.446;6.698;2023-08-07T07:05:31;13.00;;;5.47;;
12271;SDS011;6198;51.446;6.698;2023-08-07T07:07:58;15.53;;;6.10;;
12271;SDS011;6198;51.446;6.698;2023-08-07T07:10:24;18.10;;;6.17;;
12271;SDS011;6198;51.446;6.698;2023-08-07T07:12:50;15.70;;;6.50;;
12271;SDS011;6198;51.446;6.698;2023-08-07T07:15:17;13.37;;;5.90;;
12271;SDS011;6198;51.446;6.698;2023-08-07T07:17:43;13.27;;;5.23;;
12271;SDS011;6198;51.446;6.698;2023-08-07T07:20:09;14.13;;;5.50;;
12271;SDS011;6198;51.446;6.698;2023-08-07T07:22:36;15.60;;;5.43;;
12271;SDS011;6198;51.446;6.698;2023-08-07T07:25:02;13.13;;;5.90;;
12271;SDS011;6198;51.446;6.698;2023-08-07T07:27:28;13.23;;;5.20;;
12271;SDS011;6198;51.446;6.698;2023-08-07T07:29:54;14.80;;;4.70;;
12271;SDS011;6198;51.446;6.698;2023-08-07T07:32:20;14.53;;;5.50;;
12271;SDS011;6198;51.446;6.698;2023-08-07T07:34:46;14.50;;;5.80;;
12271;SDS011;6198;51.446;6.698;2023-08-07T07:37:12;16.83;;;5.27;;
12271;SDS011;6198;51.446;6.698;2023-08-07T07:39:39;20.30;;;6.03;;
12271;SDS011;6198;51.446;6.698;2023-08-07T07:42:06;9.40;;;4.70;;
12271;SDS011;6198;51.446;6.698;2023-08-07T07:44:32;16.10;;;5.70;;
12271;SDS011;6198;51.446;6.698;2023-08-07T07:47:00;16.07;;;5.50;;
12271;SDS011;6198;51.446;6.698;2023-08-07T07:49:26;16.20;;;6.30;;
12271;SDS011;6198;51.446;6.698;2023-08-07T07:51:52;10.83;;;5.43;;
12271;SDS011;6198;51.446;6.698;2023-08-07T07:54:18;14.60;;;5.23;;
12271;SDS011;6198;51.446;6.698;2023-08-07T07:56:44;12.40;;;4.93;;
12271;SDS011;6198;51.446;6.698;2023-08-07T07:59:11;14.47;;;5.40;;
12271;SDS011;6198;51.446;6.698;2023-08-07T08:01:37;12.97;;;5.20;;
12271;SDS011;6198;51.446;6.698;2023-08-07T08:04:03;13.17;;;4.93;;
12271;SDS011;6198;51.446;6.698;2023-08-07T08:06:29;10.27;;;4.53;;
12271;SDS011;6198;51.446;6.698;2023-08-07T08:08:55;15.50;;;5.10;;
12271;SDS011;6198;51.446;6.698;2023-08-07T08:11:21;13.53;;;4.73;;
12271;SDS011;6198;51.446;6.698;2023-08-07T08:13:48;12.03;;;5.17;;
12271;SDS011;6198;51.446;6.698;2023-08-07T08:16:14;12.73;;;4.63;;
12271;SDS011;6198;51.446;6.698;2023-08-07T08:18:40;8.97;;;4.53;;
12271;SDS011;6198;51.446;6.698;2023-08-07T08:21:06;14.07;;;4.37;;
12271;SDS011;6198;51.446;6.698;2023-08-07T08:23:32;10.40;;;4.40;;
12271;SDS011;6198;51.446;6.698;2023-08-07T08:25:58;9.23;;;3.50;;
12271;SDS011;6198;51.446;6.698;2023-08-07T08:28:24;17.00;;;5.03;;
12271;SDS011;6198;51.446;6.698;2023-08-07T08:30:50;12.87;;;3.90;;
12271;SDS011;6198;51.446;6.698;2023-08-07T08:33:16;20.03;;;4.63;;
12271;SDS011;6198;51.446;6.698;2023-08-07T08:35:42;10.77;;;4.27;;
12271;SDS011;6198;51.446;6.698;2023-08-07T08:38:08;7.10;;;3.90;;
12271;SDS011;6198;51.446;6.698;2023-08-07T08:40:34;8.27;;;3.60;;
12271;SDS011;6198;51.446;6.698;2023-08-07T08:43:01;12.67;;;4.67;;
12271;SDS011;6198;51.446;6.698;2023-08-07T08:45:27;12.07;;;3.60;;
12271;SDS011;6198;51.446;6.698;2023-08-07T08:47:54;7.07;;;3.97;;
12271;SDS011;6198;51.446;6.698;2023-08-07T08:50:21;7.90;;;3.30;;
12271;SDS011;6198;51.446;6.698;2023-08-07T08:52:47;8.40;;;4.30;;
12271;SDS011;6198;51.446;6.698;2023-08-07T08:55:13;9.40;;;3.77;;
12271;SDS011;6198;51.446;6.698;2023-08-07T08:57:39;9.87;;;3.80;;
12271;SDS011;6198;51.446;6.698;2023-08-07T09:00:06;10.77;;;4.07;;
12271;SDS011;6198;51.446;6.698;2023-08-07T09:02:41;9.83;;;3.80;;
12271;SDS011;6198;51.446;6.698;2023-08-07T09:05:07;12.70;;;4.80;;
12271;SDS011;6198;51.446;6.698;2023-08-07T09:07:34;10.33;;;4.40;;
12271;SDS011;6198;51.446;6.698;2023-08-07T09:10:01;8.70;;;4.10;;
12271;SDS011;6198;51.446;6.698;2023-08-07T09:12:29;10.53;;;4.57;;
12271;SDS011;6198;51.446;6.698;2023-08-07T09:14:58;12.33;;;4.73;;
12271;SDS011;6198;51.446;6.698;2023-08-07T09:17:26;9.20;;;4.53;;
12271;SDS011;6198;51.446;6.698;2023-08-07T09:19:52;8.17;;;4.30;;
12271;SDS011;6198;51.446;6.698;2023-08-07T09:22:19;10.43;;;4.07;;
12271;SDS011;6198;51.446;6.698;2023-08-07T09:24:45;10.93;;;4.57;;
12271;SDS011;6198;51.446;6.698;2023-08-07T09:27:11;11.27;;;4.50;;
12271;SDS011;6198;51.446;6.698;2023-08-07T09:29:40;13.00;;;4.50;;
12271;SDS011;6198;51.446;6.698;2023-08-07T09:32:15;14.10;;;4.83;;
12271;SDS011;6198;51.446;6.698;2023-08-07T09:34:43;14.70;;;5.50;;
12271;SDS011;6198;51.446;6.698;2023-08-07T09:37:09;12.87;;;4.17;;
12271;SDS011;6198;51.446;6.698;2023-08-07T09:39:35;13.60;;;4.77;;
12271;SDS011;6198;51.446;6.698;2023-08-07T09:42:04;12.13;;;4.73;;
12271;SDS011;6198;51.446;6.698;2023-08-07T09:44:37;10.77;;;3.80;;
12271;SDS011;6198;51.446;6.698;2023-08-07T09:47:14;10.20;;;3.77;;
12271;SDS011;6198;51.446;6.698;2023-08-07T09:49:40;14.90;;;4.97;;
12271;SDS011;6198;51.446;6.698;2023-08-07T09:52:07;17.13;;;5.73;;
12271;SDS011;6198;51.446;6.698;2023-08-07T09:54:33;11.03;;;4.70;;
12271;SDS011;6198;51.446;6.698;2023-08-07T09:56:59;15.33;;;5.90;;
12271;SDS011;6198;51.446;6.698;2023-08-07T09:59:27;17.27;;;7.20;;
12271;SDS011;6198;51.446;6.698;2023-08-07T10:01:53;19.47;;;4.93;;
12271;SDS011;6198;51.446;6.698;2023-08-07T10:04:20;13.90;;;4.63;;
12271;SDS011;6198;51.446;6.698;2023-08-07T10:06:46;10.50;;;4.10;;
12271;SDS011;6198;51.446;6.698;2023-08-07T10:09:12;17.53;;;5.90;;
12271;SDS011;6198;51.446;6.698;2023-08-07T10:11:38;13.60;;;4.07;;
12271;SDS011;6198;51.446;6.698;2023-08-07T10:14:05;15.87;;;4.23;;
12271;SDS011;6198;51.446;6.698;2023-08-07T10:16:31;12.27;;;5.07;;
12271;SDS011;6198;51.446;6.698;2023-08-07T10:18:57;10.53;;;3.43;;
12271;SDS011;6198;51.446;6.698;2023-08-07T10:21:24;9.40;;;3.50;;
12271;SDS011;6198;51.446;6.698;2023-08-07T10:23:53;13.43;;;3.70;;
12271;SDS011;6198;51.446;6.698;2023-08-07T10:26:19;10.90;;;3.60;;
12271;SDS011;6198;51.446;6.698;2023-08-07T10:28:46;11.00;;;3.53;;
12271;SDS011;6198;51.446;6.698;2023-08-07T10:31:12;10.43;;;3.33;;
12271;SDS011;6198;51.446;6.698;2023-08-07T10:33:40;9.60;;;3.40;;
12271;SDS011;6198;51.446;6.698;2023-08-07T10:36:09;8.30;;;3.70;;
12271;SDS011;6198;51.446;6.698;2023-08-07T10:38:35;11.47;;;3.87;;
12271;SDS011;6198;51.446;6.698;2023-08-07T10:41:05;9.43;;;3.33;;
12271;SDS011;6198;51.446;6.698;2023-08-07T10:43:35;12.30;;;4.00;;
12271;SDS011;6198;51.446;6.698;2023-08-07T10:46:07;13.50;;;4.50;;
12271;SDS011;6198;51.446;6.698;2023-08-07T10:48:37;9.67;;;4.23;;
12271;SDS011;6198;51.446;6.698;2023-08-07T10:51:04;14.80;;;4.67;;
12271;SDS011;6198;51.446;6.698;2023-08-07T10:53:30;14.90;;;5.10;;
12271;SDS011;6198;51.446;6.698;2023-08-07T10:55:57;11.43;;;5.30;;
12271;SDS011;6198;51.446;6.698;2023-08-07T10:58:24;17.63;;;5.83;;
12271;SDS011;6198;51.446;6.698;2023-08-07T11:00:51;11.87;;;4.83;;
12271;SDS011;6198;51.446;6.698;2023-08-07T11:03:35;13.47;;;4.90;;
12271;SDS011;6198;51.446;6.698;2023-08-07T11:06:01;10.97;;;5.30;;
12271;SDS011;6198;51.446;6.698;2023-08-07T11:08:27;13.83;;;5.57;;
12271;SDS011;6198;51.446;6.698;2023-08-07T11:10:54;15.57;;;6.00;;
12271;SDS011;6198;51.446;6.698;2023-08-07T11:13:21;8.30;;;3.43;;
12271;SDS011;6198;51.446;6.698;2023-08-07T11:15:47;9.47;;;3.23;;
12271;SDS011;6198;51.446;6.698;2023-08-07T11:18:13;13.00;;;4.23;;
12271;SDS011;6198;51.446;6.698;2023-08-07T11:20:39;6.67;;;3.40;;
12271;SDS011;6198;51.446;6.698;2023-08-07T11:23:05;8.47;;;3.27;;
12271;SDS011;6198;51.446;6.698;2023-08-07T11:25:31;11.90;;;3.60;;
12271;SDS011;6198;51.446;6.698;2023-08-07T11:27:58;8.53;;;3.07;;
12271;SDS011;6198;51.446;6.698;2023-08-07T11:30:24;10.90;;;3.77;;
12271;SDS011;6198;51.446;6.698;2023-08-07T11:32:50;10.33;;;3.40;;
12271;SDS011;6198;51.446;6.698;2023-08-07T11:35:16;9.90;;;3.60;;
12271;SDS011;6198;51.446;6.698;2023-08-07T11:37:46;9.43;;;3.50;;
12271;SDS011;6198;51.446;6.698;2023-08-07T11:40:12;9.47;;;4.07;;
12271;SDS011;6198;51.446;6.698;2023-08-07T12:06:59;7.97;;;2.80;;
12271;SDS011;6198;51.446;6.698;2023-08-07T12:09:25;8.27;;;2.93;;
12271;SDS011;6198;51.446;6.698;2023-08-07T12:11:55;9.17;;;2.73;;
12271;SDS011;6198;51.446;6.698;2023-08-07T12:14:22;8.77;;;3.13;;
12271;SDS011;6198;51.446;6.698;2023-08-07T12:16:47;7.90;;;3.33;;
12271;SDS011;6198;51.446;6.698;2023-08-07T12:19:15;7.77;;;2.90;;
12271;SDS011;6198;51.446;6.698;2023-08-07T12:21:41;10.47;;;2.67;;
12271;SDS011;6198;51.446;6.698;2023-08-07T12:24:08;5.67;;;2.83;;
12271;SDS011;6198;51.446;6.698;2023-08-07T12:26:34;6.37;;;2.83;;
12271;SDS011;6198;51.446;6.698;2023-08-07T12:29:00;9.40;;;2.90;;
12271;SDS011;6198;51.446;6.698;2023-08-07T12:31:26;4.30;;;2.10;;
12271;SDS011;6198;51.446;6.698;2023-08-07T12:33:52;7.63;;;2.67;;
12271;SDS011;6198;51.446;6.698;2023-08-07T12:36:18;9.03;;;2.80;;
12271;SDS011;6198;51.446;6.698;2023-08-07T12:38:44;7.17;;;2.60;;
12271;SDS011;6198;51.446;6.698;2023-08-07T12:41:10;7.53;;;2.83;;
12271;SDS011;6198;51.446;6.698;2023-08-07T12:43:36;5.57;;;2.47;;
12271;SDS011;6198;51.446;6.698;2023-08-07T12:46:02;7.13;;;2.40;;
12271;SDS011;6198;51.446;6.698;2023-08-07T12:48:27;6.90;;;2.67;;
12271;SDS011;6198;51.446;6.698;2023-08-07T12:50:54;8.83;;;3.20;;
12271;SDS011;6198;51.446;6.698;2023-08-07T12:53:19;6.70;;;2.20;;
12271;SDS011;6198;51.446;6.698;2023-08-07T12:55:45;10.10;;;2.47;;
12271;SDS011;6198;51.446;6.698;2023-08-07T12:58:11;11.37;;;2.67;;
12271;SDS011;6198;51.446;6.698;2023-08-07T13:00:37;6.27;;;2.60;;
12271;SDS011;6198;51.446;6.698;2023-08-07T13:03:03;4.87;;;2.57;;
12271;SDS011;6198;51.446;6.698;2023-08-07T13:05:29;9.93;;;2.97;;
12271;SDS011;6198;51.446;6.698;2023-08-07T13:07:56;7.03;;;2.70;;
12271;SDS011;6198;51.446;6.698;2023-08-07T13:10:23;8.27;;;2.20;;
12271;SDS011;6198;51.446;6.698;2023-08-07T13:12:49;4.63;;;2.33;;
12271;SDS011;6198;51.446;6.698;2023-08-07T13:15:16;9.87;;;2.43;;
12271;SDS011;6198;51.446;6.698;2023-08-07T13:17:43;4.23;;;2.20;;
12271;SDS011;6198;51.446;6.698;2023-08-07T13:20:10;5.03;;;2.53;;
12271;SDS011;6198;51.446;6.698;2023-08-07T13:22:38;5.60;;;2.50;;
12271;SDS011;6198;51.446;6.698;2023-08-07T13:25:04;6.00;;;2.47;;
12271;SDS011;6198;51.446;6.698;2023-08-07T13:27:32;8.43;;;2.90;;
12271;SDS011;6198;51.446;6.698;2023-08-07T13:29:58;7.13;;;2.57;;
12271;SDS011;6198;51.446;6.698;2023-08-07T13:32:27;5.27;;;2.20;;
12271;SDS011;6198;51.446;6.698;2023-08-07T13:34:53;6.60;;;2.93;;
12271;SDS011;6198;51.446;6.698;2023-08-07T13:37:19;5.70;;;2.53;;
12271;SDS011;6198;51.446;6.698;2023-08-07T13:39:45;4.83;;;2.70;;
12271;SDS011;6198;51.446;6.698;2023-08-07T13:42:14;4.73;;;2.70;;
12271;SDS011;6198;51.446;6.698;2023-08-07T13:44:40;8.83;;;3.67;;
12271;SDS011;6198;51.446;6.698;2023-08-07T13:47:06;5.73;;;3.03;;
12271;SDS011;6198;51.446;6.698;2023-08-07T13:49:32;10.67;;;3.33;;
12271;SDS011;6198;51.446;6.698;2023-08-07T13:51:58;9.33;;;3.20;;
12271;SDS011;6198;51.446;6.698;2023-08-07T13:54:24;3.83;;;2.93;;
12271;SDS011;6198;51.446;6.698;2023-08-07T13:56:50;4.90;;;2.47;;
12271;SDS011;6198;51.446;6.698;2023-08-07T13:59:16;4.83;;;2.37;;
12271;SDS011;6198;51.446;6.698;2023-08-07T14:01:42;8.30;;;2.70;;
12271;SDS011;6198;51.446;6.698;2023-08-07T14:04:08;5.80;;;2.90;;
12271;SDS011;6198;51.446;6.698;2023-08-07T14:06:34;4.00;;;3.00;;
12271;SDS011;6198;51.446;6.698;2023-08-07T14:09:00;5.73;;;2.60;;
12271;SDS011;6198;51.446;6.698;2023-08-07T14:11:26;6.30;;;2.67;;
12271;SDS011;6198;51.446;6.698;2023-08-07T14:13:58;4.80;;;2.40;;
12271;SDS011;6198;51.446;6.698;2023-08-07T14:16:24;5.83;;;3.17;;
12271;SDS011;6198;51.446;6.698;2023-08-07T14:18:51;5.90;;;2.60;;
12271;SDS011;6198;51.446;6.698;2023-08-07T14:21:17;5.47;;;2.27;;
12271;SDS011;6198;51.446;6.698;2023-08-07T14:23:43;6.57;;;3.10;;
12271;SDS011;6198;51.446;6.698;2023-08-07T14:26:11;4.33;;;2.40;;
12271;SDS011;6198;51.446;6.698;2023-08-07T14:28:37;5.20;;;2.17;;
12271;SDS011;6198;51.446;6.698;2023-08-07T14:31:06;4.10;;;2.07;;
12271;SDS011;6198;51.446;6.698;2023-08-07T14:33:32;2.73;;;2.10;;
12271;SDS011;6198;51.446;6.698;2023-08-07T14:35:59;3.47;;;2.20;;
12271;SDS011;6198;51.446;6.698;2023-08-07T14:38:26;5.13;;;2.50;;
12271;SDS011;6198;51.446;6.698;2023-08-07T14:40:52;5.43;;;2.10;;
12271;SDS011;6198;51.446;6.698;2023-08-07T14:43:19;3.27;;;2.10;;
12271;SDS011;6198;51.446;6.698;2023-08-07T14:45:45;3.97;;;2.07;;
12271;SDS011;6198;51.446;6.698;2023-08-07T14:48:13;9.63;;;2.43;;
12271;SDS011;6198;51.446;6.698;2023-08-07T14:50:40;5.33;;;2.20;;
12271;SDS011;6198;51.446;6.698;2023-08-07T14:53:06;6.00;;;2.40;;
12271;SDS011;6198;51.446;6.698;2023-08-07T14:55:33;3.53;;;2.00;;
12271;SDS011;6198;51.446;6.698;2023-08-07T14:57:59;5.60;;;2.80;;
12271;SDS011;6198;51.446;6.698;2023-08-07T15:00:25;4.80;;;3.17;;
12271;SDS011;6198;51.446;6.698;2023-08-07T15:02:50;4.30;;;2.70;;
12271;SDS011;6198;51.446;6.698;2023-08-07T15:05:16;3.87;;;2.30;;
12271;SDS011;6198;51.446;6.698;2023-08-07T15:07:44;10.30;;;2.67;;
12271;SDS011;6198;51.446;6.698;2023-08-07T15:10:10;4.13;;;2.23;;
12271;SDS011;6198;51.446;6.698;2023-08-07T15:12:35;9.70;;;2.60;;